Time;durP1;ratioP1;P1;durP2;ratioP2;P2;SDS_P1;SDS_P2;PMS_P1;PMS_P2;Temp;Humidity;BMP_temperature;BMP_pressure;BME280_temperature;BME280_humidity;BME280_pressure;Samples;Min_cycle;Max_cycle;Signal;HPM_P1;HPM_P2
2021/12/31 00:01:06;;;;;;;4.53;1.70;;;20.50;60.90;;;;;;5013916;28;20042;-64
2021/12/31 00:03:32;;;;;;;4.97;1.92;;;20.50;60.90;;;;;;5014126;28;20096;-64
2021/12/31 00:05:57;;;;;;;4.32;1.85;;;20.50;60.80;;;;;;5014478;28;20041;-64
2021/12/31 00:08:22;;;;;;;6.43;2.13;;;20.50;60.80;;;;;;5014788;28;20409;-64
2021/12/31 00:10:48;;;;;;;6.90;1.88;;;20.40;60.70;;;;;;5013859;28;20046;-64
2021/12/31 00:13:14;;;;;;;4.85;1.45;;;20.40;60.80;;;;;;5014559;28;20093;-64
2021/12/31 00:15:39;;;;;;;5.25;1.80;;;20.40;60.80;;;;;;5013405;28;20133;-64
2021/12/31 00:18:05;;;;;;;4.22;1.55;;;20.40;60.80;;;;;;5013784;28;20046;-64
2021/12/31 00:20:32;;;;;;;5.78;2.05;;;20.40;60.70;;;;;;5014820;28;20053;-64
2021/12/31 00:23:06;;;;;;;4.00;1.50;;;20.40;60.70;;;;;;5014498;28;20038;-64
2021/12/31 00:25:33;;;;;;;5.40;1.50;;;20.40;61.30;;;;;;5013721;28;20046;-64
2021/12/31 00:27:58;;;;;;;3.90;1.38;;;20.40;60.60;;;;;;5014337;28;20045;-64
2021/12/31 00:30:24;;;;;;;3.70;1.38;;;20.40;60.60;;;;;;5014273;28;20050;-64
2021/12/31 00:32:50;;;;;;;4.40;1.40;;;20.40;60.60;;;;;;5011831;28;20050;-64
2021/12/31 00:35:15;;;;;;;6.38;1.70;;;20.40;60.60;;;;;;5014777;28;20069;-64
2021/12/31 00:37:41;;;;;;;4.15;1.48;;;20.30;60.50;;;;;;5014227;28;20441;-64
2021/12/31 00:40:09;;;;;;;7.30;1.27;;;20.30;60.50;;;;;;5013528;28;20037;-64
2021/12/31 00:42:34;;;;;;;5.85;1.67;;;20.30;60.50;;;;;;5013203;28;20057;-64
2021/12/31 00:45:00;;;;;;;2.75;1.40;;;20.30;60.50;;;;;;5011661;28;20096;-64
2021/12/31 00:47:26;;;;;;;3.45;1.15;;;20.30;60.50;;;;;;5014026;28;20532;-64
2021/12/31 00:49:51;;;;;;;5.70;1.67;;;20.30;60.40;;;;;;5013873;28;20037;-64
2021/12/31 00:52:17;;;;;;;3.70;1.40;;;20.30;60.40;;;;;;5013513;28;20758;-64
2021/12/31 00:54:43;;;;;;;4.53;1.52;;;20.30;60.40;;;;;;5012387;28;20125;-64
2021/12/31 00:57:09;;;;;;;3.50;1.30;;;20.30;60.30;;;;;;5012672;28;20072;-64
2021/12/31 00:59:35;;;;;;;5.10;1.45;;;20.30;60.30;;;;;;5013234;28;20041;-63
2021/12/31 01:02:03;;;;;;;2.70;1.20;;;20.30;60.30;;;;;;5013757;28;20045;-63
2021/12/31 01:04:29;;;;;;;;;;;20.30;60.30;;;;;;5014238;28;20041;-64
2021/12/31 01:06:55;;;;;;;5.32;1.60;;;20.20;60.20;;;;;;5011458;28;19925;-64
2021/12/31 01:09:20;;;;;;;4.20;1.40;;;20.20;60.30;;;;;;5013906;28;20046;-64
2021/12/31 01:11:47;;;;;;;3.65;1.00;;;20.20;60.30;;;;;;5012423;28;20045;-64
2021/12/31 01:14:54;;;;;;;4.20;1.40;;;20.20;60.20;;;;;;5012937;28;20042;-65
2021/12/31 01:17:09;;;;;;;4.22;1.30;;;20.20;60.30;;;;;;5012392;28;20050;-64
2021/12/31 01:19:45;;;;;;;2.75;1.00;;;20.20;60.30;;;;;;5013763;28;20041;-64
2021/12/31 01:22:23;;;;;;;3.53;1.08;;;20.20;60.20;;;;;;5013135;28;20042;-64
2021/12/31 01:24:49;;;;;;;4.25;1.17;;;20.20;60.20;;;;;;5012933;28;20042;-65
2021/12/31 01:27:15;;;;;;;2.58;0.90;;;20.20;60.20;;;;;;5011475;28;20093;-65
2021/12/31 01:29:40;;;;;;;4.88;1.13;;;20.20;60.20;;;;;;5013131;28;20042;-64
2021/12/31 01:32:06;;;;;;;4.70;1.20;;;20.20;60.20;;;;;;5011711;28;20058;-65
2021/12/31 01:34:32;;;;;;;3.53;1.25;;;20.20;60.20;;;;;;5012518;28;20042;-65
2021/12/31 01:36:59;;;;;;;3.50;0.93;;;20.20;60.20;;;;;;5011464;28;20096;-65
2021/12/31 01:39:27;;;;;;;3.72;1.50;;;20.20;60.20;;;;;;5012746;28;20064;-64
2021/12/31 01:41:55;;;;;;;4.22;0.98;;;20.20;60.20;;;;;;5010839;28;20044;-65
2021/12/31 01:44:22;;;;;;;3.73;1.03;;;20.20;60.10;;;;;;5011793;28;20493;-65
2021/12/31 01:46:58;;;;;;;2.03;0.82;;;20.20;60.10;;;;;;5011792;28;20129;-65
2021/12/31 01:49:27;;;;;;;2.70;1.05;;;20.20;60.10;;;;;;5011005;28;20046;-64
2021/12/31 01:51:53;;;;;;;5.15;1.23;;;20.20;60.20;;;;;;5011675;28;20046;-64
2021/12/31 01:54:19;;;;;;;3.10;1.00;;;20.20;60.30;;;;;;5012998;28;20038;-64
2021/12/31 01:56:44;;;;;;;3.90;1.27;;;20.10;60.10;;;;;;5010831;28;20111;-64
2021/12/31 01:59:10;;;;;;;3.78;1.10;;;20.10;60.10;;;;;;5011740;28;20104;-64
2021/12/31 02:01:35;;;;;;;3.83;0.80;;;20.10;60.00;;;;;;5011768;28;20481;-64
2021/12/31 02:04:01;;;;;;;4.25;1.08;;;20.10;60.00;;;;;;5011757;28;20113;-64
2021/12/31 02:06:26;;;;;;;4.05;1.10;;;20.10;60.10;;;;;;5011357;28;20501;-64
2021/12/31 02:08:52;;;;;;;3.50;0.90;;;20.10;60.00;;;;;;4995052;28;20473;-64
2021/12/31 02:11:17;;;;;;;3.90;0.93;;;20.10;60.00;;;;;;5010746;28;20120;-64
2021/12/31 02:13:43;;;;;;;2.83;1.02;;;20.10;60.00;;;;;;4994958;28;20068;-64
2021/12/31 02:16:09;;;;;;;2.47;0.98;;;20.10;60.00;;;;;;5011854;28;20493;-64
2021/12/31 02:18:35;;;;;;;2.92;0.90;;;20.10;60.00;;;;;;5012025;28;20057;-64
2021/12/31 02:21:02;;;;;;;4.88;1.00;;;20.10;60.60;;;;;;5012654;28;20038;-64
2021/12/31 02:23:37;;;;;;;2.78;0.93;;;20.10;60.00;;;;;;5010746;28;20409;-64
2021/12/31 02:26:03;;;;;;;4.68;1.00;;;20.10;60.30;;;;;;5012690;28;20029;-64
2021/12/31 02:28:28;;;;;;;3.63;0.88;;;20.10;60.00;;;;;;5011507;28;20561;-64
2021/12/31 02:31:00;;;;;;;2.42;0.80;;;20.10;60.00;;;;;;5010535;28;20042;-64
2021/12/31 02:33:25;;;;;;;2.45;1.10;;;20.10;60.00;;;;;;5012872;28;20038;-64
2021/12/31 02:35:51;;;;;;;2.80;0.90;;;20.10;60.00;;;;;;5012242;28;20131;-64
2021/12/31 02:38:16;;;;;;;3.35;0.80;;;20.10;60.00;;;;;;5010722;28;20485;-63
2021/12/31 02:40:42;;;;;;;3.33;1.05;;;20.10;60.00;;;;;;5011115;28;20514;-64
2021/12/31 02:43:07;;;;;;;3.28;1.20;;;20.10;60.00;;;;;;5012744;28;20099;-61
2021/12/31 02:45:36;;;;;;;3.50;0.90;;;20.10;60.00;;;;;;5011986;28;20092;-62
2021/12/31 02:48:04;;;;;;;3.65;1.00;;;20.10;60.00;;;;;;5012210;28;20050;-62
2021/12/31 02:50:33;;;;;;;2.72;0.80;;;20.10;59.90;;;;;;5016218;28;20081;-62
2021/12/31 02:53:00;;;;;;;4.78;1.05;;;20.10;59.90;;;;;;5013984;28;20080;-63
2021/12/31 02:55:26;;;;;;;4.28;1.10;;;20.10;59.90;;;;;;5014991;28;20046;-63
2021/12/31 02:57:52;;;;;;;3.03;0.82;;;20.10;59.90;;;;;;5014988;28;20085;-63
2021/12/31 03:00:17;;;;;;;3.92;1.20;;;20.10;59.80;;;;;;4996928;28;20053;-62
2021/12/31 03:02:43;;;;;;;2.08;0.88;;;20.10;59.90;;;;;;5014250;28;20046;-63
2021/12/31 03:05:08;;;;;;;3.85;0.98;;;20.20;59.90;;;;;;5014081;28;20041;-63
2021/12/31 03:07:35;;;;;;;3.63;1.30;;;20.20;59.80;;;;;;5014796;28;20061;-63
2021/12/31 03:10:01;;;;;;;2.63;0.70;;;20.20;59.80;;;;;;5014784;28;20042;-63
2021/12/31 03:12:26;;;;;;;2.63;0.88;;;20.10;59.80;;;;;;5014644;28;20096;-63
2021/12/31 03:14:54;;;;;;;2.83;0.77;;;20.10;59.70;;;;;;5013356;28;20045;-63
2021/12/31 03:17:19;;;;;;;4.95;0.90;;;20.20;59.80;;;;;;4998790;28;20085;-63
2021/12/31 03:19:45;;;;;;;2.60;0.60;;;20.20;59.70;;;;;;4997159;28;20088;-63
2021/12/31 03:22:10;;;;;;;3.13;0.73;;;20.20;59.70;;;;;;5016046;28;20072;-63
2021/12/31 03:24:36;;;;;;;4.05;1.00;;;20.20;59.70;;;;;;5014696;28;20048;-63
2021/12/31 03:27:01;;;;;;;2.80;0.80;;;20.20;59.70;;;;;;5014637;28;20917;-63
2021/12/31 03:29:27;;;;;;;2.90;0.93;;;20.20;59.70;;;;;;5015742;28;20458;-63
2021/12/31 03:31:53;;;;;;;2.10;0.80;;;20.20;59.70;;;;;;5013944;28;20042;-63
2021/12/31 03:34:19;;;;;;;1.95;0.73;;;20.20;59.70;;;;;;5014892;28;20474;-63
2021/12/31 03:36:44;;;;;;;2.53;0.70;;;20.20;59.60;;;;;;5015148;28;20057;-63
2021/12/31 03:39:10;;;;;;;3.88;0.90;;;20.30;59.70;;;;;;5015592;28;20081;-63
2021/12/31 03:41:36;;;;;;;2.33;0.70;;;20.20;59.50;;;;;;5014774;28;20044;-63
2021/12/31 03:44:03;;;;;;;3.20;0.82;;;20.30;59.60;;;;;;5013966;28;20038;-63
2021/12/31 03:46:28;;;;;;;3.15;1.00;;;20.30;59.60;;;;;;5015521;28;20038;-63
2021/12/31 03:48:54;;;;;;;2.30;0.88;;;20.30;59.60;;;;;;5014501;28;20046;-63
2021/12/31 03:51:19;;;;;;;3.30;0.80;;;20.30;59.50;;;;;;5015444;28;20064;-63
2021/12/31 03:53:45;;;;;;;1.90;0.90;;;20.30;59.50;;;;;;5014808;28;20046;-63
2021/12/31 03:56:10;;;;;;;1.73;0.68;;;20.30;59.50;;;;;;5013400;28;20482;-62
2021/12/31 03:58:36;;;;;;;2.80;0.80;;;20.30;59.50;;;;;;5013914;28;20049;-63
2021/12/31 04:01:02;;;;;;;3.72;0.85;;;20.30;59.50;;;;;;5014310;28;20041;-63
2021/12/31 04:03:27;;;;;;;2.75;0.98;;;20.30;59.40;;;;;;5013188;28;20046;-62
2021/12/31 04:05:53;;;;;;;3.20;1.13;;;20.30;60.10;;;;;;5013213;28;20042;-63
2021/12/31 04:08:19;;;;;;;2.50;0.90;;;20.40;59.50;;;;;;5013934;28;20116;-62
2021/12/31 04:10:44;;;;;;;3.88;0.65;;;20.40;59.50;;;;;;5013824;28;20401;-62
2021/12/31 04:13:10;;;;;;;2.42;0.80;;;20.40;59.40;;;;;;5014836;28;20034;-62
2021/12/31 04:15:35;;;;;;;1.90;0.75;;;20.40;60.00;;;;;;5013451;28;20453;-62
2021/12/31 04:18:01;;;;;;;2.13;0.90;;;20.40;59.50;;;;;;5012774;28;20099;-62
2021/12/31 04:22:59;;;;;;;4.15;0.80;;;20.40;59.40;;;;;;5014417;28;20042;-63
2021/12/31 04:25:24;;;;;;;2.83;0.80;;;20.40;59.40;;;;;;5014648;28;20060;-63
2021/12/31 04:27:51;;;;;;;2.90;0.85;;;20.40;59.30;;;;;;5014515;28;20125;-63
2021/12/31 04:30:16;;;;;;;2.72;0.70;;;20.40;59.30;;;;;;5013366;28;20053;-63
2021/12/31 04:32:42;;;;;;;2.90;0.90;;;20.40;59.30;;;;;;5014209;28;20042;-63
2021/12/31 04:35:10;;;;;;;1.48;0.60;;;20.40;59.40;;;;;;5014568;28;20052;-63
2021/12/31 04:37:35;;;;;;;1.95;0.80;;;20.50;59.40;;;;;;5013884;28;20095;-63
2021/12/31 04:40:01;;;;;;;1.60;0.70;;;20.40;59.30;;;;;;5014312;28;20132;-63
2021/12/31 04:42:26;;;;;;;2.78;0.70;;;20.50;59.30;;;;;;5014439;28;20048;-63
2021/12/31 04:44:52;;;;;;;3.05;0.95;;;20.50;59.30;;;;;;5011563;28;20520;-63
2021/12/31 04:47:17;;;;;;;2.83;0.70;;;20.40;59.30;;;;;;5013218;28;20041;-63
2021/12/31 04:49:43;;;;;;;2.08;0.80;;;20.50;59.30;;;;;;5012901;28;20050;-63
2021/12/31 04:52:08;;;;;;;1.83;0.68;;;20.50;59.40;;;;;;5011980;28;20050;-63
2021/12/31 04:54:34;;;;;;;2.13;0.60;;;20.50;59.30;;;;;;5014261;28;20053;-62
2021/12/31 04:56:59;;;;;;;2.20;0.70;;;20.50;59.30;;;;;;5013651;28;20370;-63
2021/12/31 04:59:25;;;;;;;1.58;0.80;;;20.50;59.30;;;;;;5011910;28;20084;-63
2021/12/31 05:01:51;;;;;;;1.45;0.60;;;20.50;59.30;;;;;;5012675;28;20478;-63
2021/12/31 05:04:17;;;;;;;2.55;0.82;;;20.50;59.30;;;;;;5013909;28;20046;-63
2021/12/31 05:06:42;;;;;;;1.60;0.60;;;20.50;59.30;;;;;;5011904;28;20082;-63
2021/12/31 05:09:09;;;;;;;1.10;0.60;;;20.50;59.20;;;;;;5013809;28;20041;-63
2021/12/31 05:11:35;;;;;;;1.88;0.80;;;20.50;59.30;;;;;;5013917;28;20528;-63
2021/12/31 05:14:00;;;;;;;1.92;0.80;;;20.50;59.20;;;;;;5010532;28;20049;-63
2021/12/31 05:16:26;;;;;;;1.83;0.70;;;20.50;59.20;;;;;;5012662;28;20038;-63
2021/12/31 05:18:51;;;;;;;2.30;0.70;;;20.50;59.20;;;;;;5012117;28;20444;-63
2021/12/31 05:21:17;;;;;;;2.67;0.65;;;20.50;59.20;;;;;;5012979;28;20104;-63
2021/12/31 05:23:42;;;;;;;1.77;0.75;;;20.50;59.20;;;;;;5012202;28;20050;-64
2021/12/31 05:26:08;;;;;;;3.30;0.73;;;20.50;59.20;;;;;;5013410;28;20045;-63
2021/12/31 05:28:33;;;;;;;1.35;0.73;;;20.50;59.20;;;;;;5012610;28;20038;-63
2021/12/31 05:30:59;;;;;;;1.50;0.60;;;20.50;59.20;;;;;;5013100;28;20041;-63
2021/12/31 05:33:25;;;;;;;1.77;0.52;;;20.60;59.20;;;;;;5011104;28;20050;-63
2021/12/31 05:35:50;;;;;;;2.10;0.68;;;20.60;59.20;;;;;;5013324;28;20088;-63
2021/12/31 05:38:16;;;;;;;3.33;0.50;;;20.60;59.20;;;;;;5013611;28;20045;-63
2021/12/31 05:40:41;;;;;;;1.58;0.60;;;20.60;59.20;;;;;;5011021;28;20153;-63
2021/12/31 05:43:07;;;;;;;1.55;0.43;;;20.60;59.20;;;;;;5012899;28;20042;-63
2021/12/31 05:45:32;;;;;;;1.73;0.60;;;20.60;59.20;;;;;;5011655;28;20133;-63
2021/12/31 05:47:58;;;;;;;1.80;0.75;;;20.60;59.20;;;;;;5012169;28;20493;-63
2021/12/31 05:50:28;;;;;;;1.42;0.60;;;20.60;59.10;;;;;;5013265;28;20052;-63
2021/12/31 05:52:57;;;;;;;1.67;0.70;;;20.60;59.10;;;;;;5011495;28;20038;-63
2021/12/31 05:55:23;;;;;;;2.05;0.60;;;20.60;59.20;;;;;;5012454;28;20042;-63
2021/12/31 05:57:48;;;;;;;2.50;0.60;;;20.60;59.20;;;;;;5011595;28;20104;-63
2021/12/31 06:00:14;;;;;;;1.88;0.57;;;20.60;59.10;;;;;;5012942;28;20477;-63
2021/12/31 06:02:40;;;;;;;2.92;0.80;;;20.60;59.10;;;;;;5012484;28;20444;-63
2021/12/31 06:05:06;;;;;;;2.03;0.90;;;20.60;59.10;;;;;;5013066;28;20077;-63
2021/12/31 06:07:31;;;;;;;1.30;0.50;;;20.60;59.10;;;;;;5011560;28;20390;-63
2021/12/31 06:09:57;;;;;;;1.25;0.60;;;20.60;59.10;;;;;;5011826;28;20104;-63
2021/12/31 06:12:23;;;;;;;1.85;0.55;;;20.60;59.10;;;;;;5011841;28;20501;-63
2021/12/31 06:14:50;;;;;;;0.93;0.40;;;20.60;59.10;;;;;;5012232;28;20096;-63
2021/12/31 06:17:21;;;;;;;1.00;0.50;;;20.60;59.10;;;;;;5011031;28;20490;-62
2021/12/31 06:19:47;;;;;;;1.52;0.60;;;20.60;59.00;;;;;;5012561;28;20053;-63
2021/12/31 06:22:12;;;;;;;2.17;0.65;;;20.60;59.00;;;;;;5013039;28;20038;-63
2021/12/31 06:24:38;;;;;;;2.40;0.70;;;20.60;59.00;;;;;;5014674;28;20046;-64
2021/12/31 06:27:03;;;;;;;2.55;0.85;;;20.60;59.00;;;;;;5016686;28;20393;-63
2021/12/31 06:29:29;;;;;;;1.90;0.70;;;20.60;59.00;;;;;;5015467;28;20049;-63
2021/12/31 06:31:54;;;;;;;1.88;0.60;;;20.70;59.00;;;;;;5014438;28;20096;-63
2021/12/31 06:34:20;;;;;;;1.63;0.60;;;20.60;58.90;;;;;;5016650;28;20089;-63
2021/12/31 06:36:45;;;;;;;1.80;0.57;;;20.70;59.00;;;;;;5014606;28;20398;-63
2021/12/31 06:39:11;;;;;;;1.98;0.60;;;20.70;59.00;;;;;;5015475;28;20045;-63
2021/12/31 06:41:37;;;;;;;2.10;0.70;;;20.70;59.00;;;;;;5016338;28;20057;-63
2021/12/31 06:44:02;;;;;;;2.03;0.50;;;20.70;59.00;;;;;;5013992;28;20038;-64
2021/12/31 06:46:28;;;;;;;1.23;0.43;;;20.70;59.00;;;;;;5015443;28;20052;-63
2021/12/31 06:48:53;;;;;;;1.67;0.60;;;20.70;58.90;;;;;;5016407;28;20552;-63
2021/12/31 06:51:19;;;;;;;2.05;0.60;;;20.70;58.80;;;;;;5015560;28;20477;-62
2021/12/31 06:53:44;;;;;;;1.10;0.60;;;20.70;58.90;;;;;;5016054;28;20096;-63
2021/12/31 06:56:10;;;;;;;1.75;0.60;;;20.70;58.90;;;;;;5014928;28;20042;-63
2021/12/31 06:58:37;;;;;;;1.33;0.50;;;20.70;58.80;;;;;;5015661;28;20050;-63
2021/12/31 07:01:03;;;;;;;1.45;0.70;;;20.70;58.80;;;;;;5014847;28;20042;-63
2021/12/31 07:03:28;;;;;;;1.17;0.45;;;20.70;58.80;;;;;;5016529;28;20088;-63
2021/12/31 07:05:54;;;;;;;1.90;0.63;;;20.70;59.40;;;;;;5013457;28;20049;-63
2021/12/31 07:08:19;;;;;;;2.05;0.60;;;20.80;58.80;;;;;;5014879;28;20081;-63
2021/12/31 07:10:45;;;;;;;2.20;0.60;;;20.70;58.70;;;;;;5015861;28;20111;-63
2021/12/31 07:13:11;;;;;;;1.77;0.60;;;20.80;58.70;;;;;;5013790;28;20133;-63
2021/12/31 07:15:45;;;;;;;2.92;0.55;;;20.80;58.70;;;;;;5014625;28;20060;-63
2021/12/31 07:18:11;;;;;;;0.68;0.50;;;20.80;58.70;;;;;;5014521;28;20046;-63
2021/12/31 07:20:36;;;;;;;1.85;0.60;;;20.80;58.70;;;;;;5013668;28;20048;-63
2021/12/31 07:23:06;;;;;;;1.67;0.63;;;20.80;58.70;;;;;;5014322;28;20173;-63
2021/12/31 07:25:32;;;;;;;2.03;0.60;;;20.80;58.70;;;;;;5015907;28;20129;-63
2021/12/31 07:27:58;;;;;;;1.33;0.52;;;20.80;58.70;;;;;;5014752;28;20116;-63
2021/12/31 07:30:23;;;;;;;1.67;0.68;;;20.80;58.70;;;;;;5015628;28;20385;-63
2021/12/31 07:32:49;;;;;;;0.77;0.47;;;20.80;58.70;;;;;;5015261;28;20046;-63
2021/12/31 07:35:14;;;;;;;1.13;0.50;;;20.90;58.70;;;;;;5012696;28;20045;-63
2021/12/31 07:37:40;;;;;;;1.05;0.50;;;20.90;58.70;;;;;;5015488;28;20038;-63
2021/12/31 07:40:06;;;;;;;2.00;0.60;;;20.90;58.70;;;;;;5013576;28;20135;-63
2021/12/31 07:42:32;;;;;;;1.70;0.60;;;20.80;58.60;;;;;;5015526;28;20041;-63
2021/12/31 07:44:58;;;;;;;0.88;0.50;;;20.90;58.60;;;;;;5014041;28;20049;-63
2021/12/31 07:47:23;;;;;;;2.20;0.70;;;20.90;58.60;;;;;;5013354;28;20049;-62
2021/12/31 07:49:49;;;;;;;1.10;0.40;;;20.90;58.60;;;;;;5013760;28;20386;-62
2021/12/31 07:52:14;;;;;;;1.48;0.57;;;20.90;58.60;;;;;;5014027;28;20046;-62
2021/12/31 07:54:40;;;;;;;1.65;0.50;;;20.90;58.60;;;;;;5013211;28;20041;-62
2021/12/31 07:57:05;;;;;;;1.90;0.82;;;20.90;58.50;;;;;;5013600;28;20084;-62
2021/12/31 07:59:31;;;;;;;2.83;0.70;;;20.90;58.50;;;;;;5015147;28;20042;-62
2021/12/31 08:01:56;;;;;;;2.58;0.57;;;20.90;58.50;;;;;;5013004;28;20108;-62
2021/12/31 08:04:22;;;;;;;2.05;0.50;;;20.90;58.40;;;;;;5013973;28;20053;-62
2021/12/31 08:06:47;;;;;;;2.22;0.70;;;20.90;58.50;;;;;;5013148;28;20073;-62
2021/12/31 08:09:13;;;;;;;1.35;0.55;;;20.90;58.50;;;;;;5014220;28;20053;-62
2021/12/31 08:11:39;;;;;;;2.28;0.60;;;21.00;58.50;;;;;;5013785;28;20065;-62
2021/12/31 08:14:05;;;;;;;3.13;0.50;;;21.00;58.50;;;;;;5013084;28;20053;-62
2021/12/31 08:16:30;;;;;;;3.25;0.60;;;20.90;58.60;;;;;;5014146;28;20474;-60
2021/12/31 08:18:56;;;;;;;3.90;0.65;;;21.00;58.70;;;;;;5013086;28;20080;-61
2021/12/31 08:21:21;;;;;;;1.38;0.50;;;21.00;58.80;;;;;;5013379;28;20092;-63
2021/12/31 08:23:48;;;;;;;3.05;0.68;;;21.00;58.70;;;;;;5012323;28;20413;-62
2021/12/31 08:26:13;;;;;;;2.45;0.70;;;21.00;58.80;;;;;;5014489;28;20547;-62
2021/12/31 08:28:39;;;;;;;1.58;0.60;;;21.00;59.00;;;;;;5013361;28;20053;-63
2021/12/31 08:31:04;;;;;;;1.90;0.77;;;21.00;59.10;;;;;;5013732;28;20041;-63
2021/12/31 08:33:30;;;;;;;1.98;0.55;;;21.10;59.30;;;;;;5013978;28;20042;-62
2021/12/31 08:35:55;;;;;;;1.83;0.70;;;21.00;59.20;;;;;;5013937;28;20493;-62
2021/12/31 08:38:22;;;;;;;2.75;0.60;;;21.10;59.30;;;;;;5012008;28;20478;-60
2021/12/31 08:40:47;;;;;;;2.25;0.70;;;21.10;59.30;;;;;;5012684;28;20412;-63
2021/12/31 08:43:13;;;;;;;3.38;0.60;;;21.10;59.30;;;;;;5012624;28;20545;-64
2021/12/31 08:45:39;;;;;;;1.95;0.70;;;21.10;59.40;;;;;;5012681;28;20046;-63
2021/12/31 08:48:04;;;;;;;3.63;0.65;;;21.10;59.40;;;;;;4996067;28;20048;-62
2021/12/31 08:50:30;;;;;;;2.58;0.75;;;21.20;59.50;;;;;;5012032;28;20486;-63
2021/12/31 08:52:56;;;;;;;6.57;0.80;;;21.10;59.30;;;;;;5012184;28;20052;-62
2021/12/31 08:55:21;;;;;;;2.20;0.73;;;21.20;59.40;;;;;;5014117;28;20046;-65
2021/12/31 08:57:47;;;;;;;5.55;0.93;;;21.20;59.40;;;;;;5012026;28;20038;-62
2021/12/31 09:00:13;;;;;;;2.53;0.65;;;21.20;59.40;;;;;;5012692;28;20401;-62
2021/12/31 09:02:39;;;;;;;1.52;0.47;;;21.20;59.50;;;;;;5012727;28;20475;-62
2021/12/31 09:05:06;;;;;;;3.38;0.70;;;21.10;59.40;;;;;;5011825;28;20169;-62
2021/12/31 09:07:32;;;;;;;3.40;0.65;;;21.20;59.50;;;;;;5012347;28;20069;-62
2021/12/31 09:09:57;;;;;;;1.80;0.50;;;21.20;59.50;;;;;;5012244;28;20049;-62
2021/12/31 09:12:23;;;;;;;3.67;0.47;;;21.20;59.50;;;;;;5011938;28;20053;-62
2021/12/31 09:14:49;;;;;;;1.83;0.60;;;21.20;59.50;;;;;;5013462;28;20042;-63
2021/12/31 09:17:14;;;;;;;1.88;0.80;;;21.20;59.50;;;;;;5012231;28;20490;-62
2021/12/31 09:19:40;;;;;;;2.35;0.90;;;21.30;59.60;;;;;;5015709;28;20077;-63
2021/12/31 09:22:06;;;;;;;1.88;0.70;;;21.30;59.60;;;;;;5021978;28;20063;-63
2021/12/31 09:24:31;;;;;;;1.67;0.60;;;21.20;59.40;;;;;;5023109;28;20513;-64
2021/12/31 09:26:57;;;;;;;4.13;0.73;;;21.30;59.50;;;;;;5019736;28;20046;-64
2021/12/31 09:29:23;;;;;;;4.43;0.75;;;21.30;59.60;;;;;;5023256;28;20474;-63
2021/12/31 09:31:50;;;;;;;3.60;0.85;;;21.30;59.60;;;;;;5031241;28;20046;-64
2021/12/31 09:34:15;;;;;;;3.35;0.88;;;21.30;59.60;;;;;;5032228;28;20052;-63
2021/12/31 09:36:41;;;;;;;1.55;0.60;;;21.30;59.60;;;;;;5032965;28;20088;-63
2021/12/31 09:39:06;;;;;;;2.75;0.70;;;21.30;59.50;;;;;;5031619;28;20095;-63
2021/12/31 09:41:32;;;;;;;3.13;0.80;;;21.30;59.50;;;;;;5032425;28;20065;-62
2021/12/31 09:43:57;;;;;;;2.45;0.80;;;21.30;59.50;;;;;;5032433;28;20045;-64
2021/12/31 09:46:23;;;;;;;3.58;1.10;;;21.30;59.40;;;;;;5031845;28;20041;-64
2021/12/31 09:48:49;;;;;;;2.85;0.50;;;21.30;59.40;;;;;;5046897;28;20045;-62
2021/12/31 09:51:15;;;;;;;1.63;0.50;;;21.30;59.40;;;;;;5032527;28;20038;-63
2021/12/31 09:53:41;;;;;;;1.00;0.65;;;21.30;59.30;;;;;;5031539;28;20550;-63
2021/12/31 09:56:07;;;;;;;3.42;0.80;;;21.30;59.40;;;;;;5031456;28;20116;-63
2021/12/31 09:58:34;;;;;;;1.92;0.80;;;21.30;59.30;;;;;;5026275;28;20053;-64
2021/12/31 10:01:01;;;;;;;1.55;0.80;;;21.30;59.30;;;;;;5011688;28;20044;-63
2021/12/31 10:03:32;;;;;;;3.60;0.98;;;21.30;59.40;;;;;;5011761;28;20092;-63
2021/12/31 10:05:58;;;;;;;6.47;1.23;;;21.40;59.50;;;;;;5010591;28;20042;-61
2021/12/31 10:08:30;;;;;;;2.45;0.80;;;21.40;59.40;;;;;;5011025;28;20049;-66
2021/12/31 10:11:21;;;;;;;5.93;1.15;;;21.40;59.40;;;;;;5012567;28;20096;-64
2021/12/31 10:13:58;;;;;;;20.38;2.17;;;21.40;59.40;;;;;;5010013;28;20512;-62
2021/12/31 10:16:28;;;;;;;5.18;1.20;;;21.30;59.30;;;;;;5011609;28;20041;-65
2021/12/31 10:19:23;;;;;;;3.38;1.00;;;21.40;59.40;;;;;;5012370;28;20049;-65
2021/12/31 10:21:51;;;;;;;4.10;1.40;;;21.40;59.40;;;;;;4997594;28;20057;-64
2021/12/31 10:24:38;;;;;;;2.80;1.20;;;21.40;59.40;;;;;;5012572;28;20096;-65
2021/12/31 10:27:09;;;;;;;4.55;1.30;;;21.40;59.40;;;;;;5012213;28;20038;-67
2021/12/31 10:29:54;;;;;;;4.72;1.38;;;21.40;59.40;;;;;;5011413;28;20053;-65
2021/12/31 10:32:22;;;;;;;5.93;1.50;;;21.30;59.30;;;;;;5011667;28;20038;-65
2021/12/31 10:34:48;;;;;;;5.18;1.33;;;21.40;59.50;;;;;;5011810;28;20433;-65
2021/12/31 10:37:19;;;;;;;5.32;1.65;;;21.40;59.70;;;;;;5010853;28;20484;-64
2021/12/31 10:39:45;;;;;;;3.55;1.20;;;21.40;59.80;;;;;;5011576;28;20065;-64
2021/12/31 10:42:12;;;;;;;2.90;1.30;;;21.40;59.80;;;;;;5010345;28;20108;-65
2021/12/31 10:44:52;;;;;;;4.00;1.10;;;21.40;59.80;;;;;;5011333;28;20088;-65
2021/12/31 10:47:24;;;;;;;4.15;1.05;;;21.40;59.90;;;;;;5009032;28;20121;-65
2021/12/31 10:50:02;;;;;;;5.10;1.35;;;21.40;59.90;;;;;;5008824;28;20048;-66
2021/12/31 10:52:34;;;;;;;5.00;1.38;;;21.40;60.00;;;;;;5029992;28;20077;-65
2021/12/31 10:55:14;;;;;;;4.68;1.20;;;21.40;59.90;;;;;;5031995;28;20123;-66
2021/12/31 10:57:40;;;;;;;3.17;1.38;;;21.40;59.90;;;;;;5026581;28;20156;-64
2021/12/31 11:00:06;;;;;;;4.95;1.35;;;21.40;59.90;;;;;;5012769;28;20132;-65
2021/12/31 11:02:33;;;;;;;3.13;1.13;;;21.40;59.90;;;;;;5011471;28;20041;-65
2021/12/31 11:04:59;;;;;;;2.78;1.23;;;21.40;59.90;;;;;;5011372;28;20116;-66
2021/12/31 11:07:25;;;;;;;3.58;0.90;;;21.40;59.90;;;;;;5011696;28;20593;-66
2021/12/31 11:09:51;;;;;;;4.90;1.83;;;21.40;60.00;;;;;;5011784;28;20046;-68
2021/12/31 11:12:16;;;;;;;5.57;1.63;;;21.40;60.10;;;;;;4996154;28;20375;-66
2021/12/31 11:14:42;;;;;;;2.45;1.25;;;21.40;60.00;;;;;;5014543;28;20125;-70
2021/12/31 11:17:07;;;;;;;3.00;0.90;;;21.50;60.00;;;;;;5014616;28;20045;-66
2021/12/31 11:19:33;;;;;;;3.78;1.10;;;21.40;59.90;;;;;;5014495;28;20053;-67
2021/12/31 11:21:58;;;;;;;4.82;1.20;;;21.50;59.90;;;;;;5013250;28;20117;-66
2021/12/31 11:24:36;;;;;;;2.55;0.95;;;21.50;60.10;;;;;;5014431;28;20073;-65
2021/12/31 11:27:42;;;;;;;6.75;1.25;;;21.50;60.00;;;;;;5013596;28;20474;-67
2021/12/31 11:30:23;;;;;;;6.05;1.20;;;21.50;60.00;;;;;;5013944;28;20456;-64
2021/12/31 11:32:48;;;;;;;3.75;1.08;;;21.50;60.00;;;;;;5012103;28;20042;-65
2021/12/31 11:35:30;;;;;;;3.60;1.00;;;21.50;60.20;;;;;;5013942;28;20050;-64
2021/12/31 11:37:56;;;;;;;4.13;1.20;;;21.50;60.20;;;;;;5014976;28;20056;-64
2021/12/31 11:40:28;;;;;;;2.00;0.95;;;21.50;60.20;;;;;;5011997;28;20124;-63
2021/12/31 11:43:23;;;;;;;3.08;1.00;;;21.50;60.20;;;;;;5013668;28;20046;-63
2021/12/31 11:46:19;;;;;;;2.40;1.05;;;21.50;60.20;;;;;;5017095;28;20064;-62
2021/12/31 11:48:46;;;;;;;3.90;1.30;;;21.50;60.20;;;;;;5016126;28;20100;-64
2021/12/31 11:51:12;;;;;;;3.10;1.17;;;21.50;60.20;;;;;;5015098;28;20410;-63
2021/12/31 11:53:58;;;;;;;2.53;1.10;;;21.50;60.30;;;;;;5013833;28;20073;-63
2021/12/31 11:56:35;;;;;;;2.55;1.20;;;21.50;60.30;;;;;;5003185;28;20050;-66
2021/12/31 11:59:07;;;;;;;6.37;1.00;;;21.50;60.30;;;;;;5013155;28;20140;-66
2021/12/31 12:01:36;;;;;;;4.88;1.00;;;21.50;60.30;;;;;;5013092;28;20045;-65
2021/12/31 12:04:30;;;;;;;7.03;1.30;;;21.50;60.40;;;;;;5013172;28;20073;-66
2021/12/31 12:07:05;;;;;;;2.75;1.00;;;21.40;60.40;;;;;;5017966;28;20104;-66
2021/12/31 12:09:36;;;;;;;4.28;1.20;;;21.50;60.60;;;;;;5028988;28;20556;-65
2021/12/31 12:12:07;;;;;;;3.53;1.20;;;21.50;60.50;;;;;;5034435;28;20080;-65
2021/12/31 12:14:47;;;;;;;3.08;1.30;;;21.50;60.60;;;;;;5032323;28;20049;-66
2021/12/31 12:17:16;;;;;;;5.05;1.20;;;21.50;60.40;;;;;;5034415;28;20120;-65
2021/12/31 12:19:50;;;;;;;3.65;1.20;;;21.50;60.40;;;;;;5034118;28;20045;-65
2021/12/31 12:22:34;;;;;;;3.10;1.20;;;21.50;60.40;;;;;;5032094;28;20049;-65
2021/12/31 12:25:12;;;;;;;2.92;1.25;;;21.50;60.40;;;;;;5034284;28;20049;-65
2021/12/31 12:27:38;;;;;;;2.22;0.93;;;21.40;60.30;;;;;;5033144;28;20060;-66
2021/12/31 12:30:05;;;;;;;3.60;1.20;;;21.40;60.30;;;;;;5031944;28;20029;-65
2021/12/31 12:32:35;;;;;;;6.00;1.40;;;21.40;60.40;;;;;;5016039;28;20038;-65
2021/12/31 12:35:21;;;;;;;3.00;1.10;;;21.40;60.40;;;;;;5014700;28;20054;-65
2021/12/31 12:38:13;;;;;;;3.55;1.00;;;21.40;60.30;;;;;;5020633;28;20103;-65
2021/12/31 12:40:58;;;;;;;3.35;1.23;;;21.40;60.30;;;;;;5024557;28;20050;-65
2021/12/31 12:43:25;;;;;;;3.22;1.10;;;21.30;60.40;;;;;;5020357;28;20037;-66
2021/12/31 12:45:55;;;;;;;3.50;1.42;;;21.40;60.50;;;;;;5023047;28;20042;-65
2021/12/31 12:48:54;;;;;;;3.67;1.13;;;21.30;60.50;;;;;;5020061;28;20045;-65
2021/12/31 12:51:29;;;;;;;3.28;1.50;;;21.30;60.50;;;;;;5023574;28;20069;-63
2021/12/31 12:53:54;;;;;;;4.22;1.40;;;21.30;60.60;;;;;;5022701;28;20073;-64